createdAt,value
2018-10-17T00:02:18.653Z,0.97
2018-10-17T00:04:48.621Z,0.40
2018-10-17T00:07:18.381Z,0.60
2018-10-17T00:09:48.793Z,1.13
2018-10-17T00:12:18.728Z,0.47
2018-10-17T00:14:48.171Z,0.40
2018-10-17T00:17:18.008Z,1.47
2018-10-17T00:19:48.001Z,0.40
2018-10-17T00:22:17.637Z,0.40
2018-10-17T00:24:47.383Z,0.40
2018-10-17T00:27:17.046Z,0.50
2018-10-17T00:29:46.464Z,0.40
2018-10-17T00:32:16.254Z,0.40
2018-10-17T00:34:45.876Z,0.50
2018-10-17T00:37:15.755Z,0.40
2018-10-17T00:39:45.317Z,1.07
2018-10-17T00:42:15.067Z,0.40
2018-10-17T00:44:44.684Z,0.40
2018-10-17T00:47:14.537Z,0.40
2018-10-17T00:49:44.449Z,0.40
2018-10-17T00:52:14.483Z,0.40
2018-10-17T00:54:44.457Z,0.40
2018-10-17T00:57:15.432Z,0.43
2018-10-17T00:59:44.813Z,0.50
2018-10-17T01:02:14.561Z,0.47
2018-10-17T01:04:44.624Z,0.50
2018-10-17T01:07:14.321Z,0.50
2018-10-17T01:09:43.640Z,0.40
2018-10-17T01:12:13.421Z,0.50
2018-10-17T01:14:43.038Z,0.47
2018-10-17T01:17:12.559Z,0.60
2018-10-17T01:19:41.922Z,0.40
2018-10-17T01:22:26.795Z,0.90
2018-10-17T01:24:57.046Z,0.40
2018-10-17T01:27:26.550Z,0.40
2018-10-17T01:29:56.057Z,0.40
2018-10-17T01:35:05.355Z,0.40
2018-10-17T01:37:34.751Z,0.63
2018-10-17T01:40:05.643Z,0.63
2018-10-17T01:42:35.032Z,0.40
2018-10-17T01:45:04.672Z,0.40
2018-10-17T01:47:36.603Z,0.97
2018-10-17T01:50:07.068Z,0.40
2018-10-17T01:52:36.750Z,0.50
2018-10-17T01:55:06.272Z,0.40
2018-10-17T01:57:35.994Z,0.40
2018-10-17T02:00:05.792Z,0.40
2018-10-17T02:02:35.208Z,0.40
2018-10-17T02:05:04.873Z,0.40
2018-10-17T02:07:35.114Z,0.40
2018-10-17T02:10:04.602Z,0.40
2018-10-17T02:12:34.004Z,0.50
2018-10-17T02:15:03.820Z,0.43
2018-10-17T02:17:33.834Z,0.40
2018-10-17T02:20:04.628Z,0.40
2018-10-17T02:22:34.088Z,0.50
2018-10-17T02:25:03.876Z,0.40
2018-10-17T02:27:33.539Z,0.77
2018-10-17T02:30:03.487Z,0.50
2018-10-17T02:32:33.449Z,0.73
2018-10-17T02:35:08.443Z,0.40
2018-10-17T02:37:37.819Z,0.40
2018-10-17T02:40:07.272Z,0.60
2018-10-17T02:42:36.719Z,0.40
2018-10-17T02:45:06.669Z,0.50
2018-10-17T02:47:36.123Z,0.50
2018-10-17T02:50:07.986Z,0.50
2018-10-17T02:52:42.658Z,0.40
2018-10-17T02:55:12.496Z,0.40
2018-10-17T02:57:42.076Z,0.40
2018-10-17T03:00:13.148Z,0.73
2018-10-17T03:02:42.763Z,0.40
2018-10-17T03:05:12.816Z,0.40
2018-10-17T03:07:42.388Z,0.40
2018-10-17T03:10:11.821Z,0.40
2018-10-17T03:12:41.227Z,0.40
2018-10-17T03:15:10.666Z,0.40
2018-10-17T03:17:40.442Z,1.90
2018-10-17T03:20:11.061Z,0.40
2018-10-17T03:22:41.069Z,0.50
2018-10-17T03:25:10.925Z,0.50
2018-10-17T03:27:40.341Z,0.50
2018-10-17T03:30:09.736Z,0.43
2018-10-17T03:32:39.141Z,0.40
2018-10-17T03:35:08.659Z,0.80
2018-10-17T03:37:38.030Z,0.50
2018-10-17T03:40:07.866Z,0.40
2018-10-17T03:42:37.564Z,0.40
2018-10-17T03:45:07.674Z,0.40
2018-10-17T03:47:37.171Z,0.40
2018-10-17T03:50:06.934Z,0.90
2018-10-17T03:52:36.639Z,0.50
2018-10-17T03:55:07.974Z,0.40
2018-10-17T03:57:37.599Z,0.40
2018-10-17T04:00:07.712Z,0.40
2018-10-17T04:02:39.710Z,1.43
2018-10-17T04:05:10.397Z,0.40
2018-10-17T04:07:40.017Z,0.97
2018-10-17T04:10:09.499Z,0.40
2018-10-17T04:12:38.916Z,0.67
2018-10-17T04:15:08.389Z,0.40
2018-10-17T04:17:37.791Z,0.40
2018-10-17T04:20:08.094Z,0.50
2018-10-17T04:22:37.550Z,0.40
2018-10-17T04:25:07.114Z,0.40
2018-10-17T04:27:36.525Z,0.47
2018-10-17T04:30:08.972Z,0.40
2018-10-17T04:32:38.410Z,0.40
2018-10-17T04:35:08.171Z,0.50
2018-10-17T04:37:37.852Z,0.40
2018-10-17T04:40:07.668Z,1.17
2018-10-17T04:42:37.292Z,0.50
2018-10-17T04:45:09.808Z,0.40
2018-10-17T04:47:39.594Z,0.50
2018-10-17T04:50:10.340Z,0.50
2018-10-17T04:52:40.307Z,0.40
2018-10-17T04:55:10.689Z,0.40
2018-10-17T04:57:40.272Z,0.40
2018-10-17T05:00:11.850Z,0.40
2018-10-17T05:02:43.047Z,0.40
2018-10-17T05:05:13.191Z,0.60
2018-10-17T05:07:42.618Z,0.40
2018-10-17T05:10:12.057Z,0.40
2018-10-17T05:12:41.503Z,0.40
2018-10-17T05:15:10.947Z,0.40
2018-10-17T05:17:40.407Z,0.40
2018-10-17T05:20:09.828Z,0.40
2018-10-17T05:22:39.636Z,0.40
2018-10-17T05:25:10.046Z,0.40
2018-10-17T05:27:39.702Z,0.40
2018-10-17T05:30:12.248Z,0.40
2018-10-17T05:32:42.260Z,0.40
2018-10-17T05:35:12.343Z,0.40
2018-10-17T05:37:42.017Z,0.50
2018-10-17T05:40:11.378Z,0.40
2018-10-17T05:42:40.829Z,0.40
2018-10-17T05:45:10.601Z,0.40
2018-10-17T05:47:40.474Z,0.50
2018-10-17T05:50:09.881Z,1.00
2018-10-17T05:52:39.641Z,0.60
2018-10-17T05:55:10.307Z,0.40
2018-10-17T05:57:39.661Z,0.40
2018-10-17T06:00:11.403Z,0.90
2018-10-17T06:02:41.292Z,0.40
2018-10-17T06:05:14.273Z,0.40
2018-10-17T06:07:43.972Z,0.40
2018-10-17T06:10:13.793Z,0.40
2018-10-17T06:12:43.252Z,0.73
2018-10-17T06:15:13.164Z,0.40
2018-10-17T06:17:42.922Z,1.47
2018-10-17T06:20:12.842Z,0.50
2018-10-17T06:22:42.526Z,0.50
2018-10-17T06:25:12.609Z,0.40
2018-10-17T06:27:42.121Z,0.50
2018-10-17T06:30:12.125Z,0.40
2018-10-17T06:32:42.227Z,0.43
2018-10-17T06:35:12.744Z,0.40
2018-10-17T06:37:42.375Z,0.40
2018-10-17T06:40:12.808Z,0.40
2018-10-17T06:42:42.389Z,0.50
2018-10-17T06:45:12.261Z,0.67
2018-10-17T06:47:42.831Z,0.40
2018-10-17T06:50:12.590Z,0.50
2018-10-17T06:52:42.634Z,1.07
2018-10-17T06:55:12.771Z,1.53
2018-10-17T06:57:46.380Z,0.40
2018-10-17T07:00:15.947Z,0.63
2018-10-17T07:02:45.742Z,0.50
2018-10-17T07:05:16.066Z,0.60
2018-10-17T07:07:45.854Z,2.20
2018-10-17T07:10:16.280Z,0.40
2018-10-17T07:12:46.216Z,0.40
2018-10-17T07:15:16.362Z,0.40
2018-10-17T07:17:46.535Z,0.40
2018-10-17T07:20:17.712Z,1.33
2018-10-17T07:22:47.579Z,0.40
2018-10-17T07:25:17.781Z,0.40
2018-10-17T07:27:47.972Z,0.40
2018-10-17T07:30:17.743Z,0.50
2018-10-17T07:32:47.625Z,1.30
2018-10-17T07:35:19.685Z,0.50
2018-10-17T07:37:49.315Z,0.50
2018-10-17T07:40:19.104Z,0.60
2018-10-17T07:42:49.086Z,0.63
2018-10-17T07:45:19.042Z,0.40
2018-10-17T07:47:48.460Z,0.40
2018-10-17T07:50:17.908Z,0.40
2018-10-17T07:52:47.789Z,0.40
2018-10-17T07:55:17.802Z,0.50
2018-10-17T07:57:47.780Z,0.47
2018-10-17T08:00:17.488Z,0.40
2018-10-17T08:02:47.239Z,0.50
2018-10-17T08:05:17.295Z,0.50
2018-10-17T08:07:46.947Z,1.37
2018-10-17T08:10:16.751Z,0.40
2018-10-17T08:12:46.795Z,0.60
2018-10-17T08:15:16.783Z,0.57
2018-10-17T08:17:46.769Z,0.40
2018-10-17T08:20:16.776Z,0.60
2018-10-17T08:22:46.784Z,0.80
2018-10-17T08:25:16.403Z,0.53
2018-10-17T08:27:45.811Z,0.60
2018-10-17T08:30:15.698Z,0.50
2018-10-17T08:32:45.656Z,0.50
2018-10-17T08:35:15.671Z,0.40
2018-10-17T08:37:48.543Z,0.40
2018-10-17T08:40:17.776Z,0.50
2018-10-17T08:42:47.602Z,1.00
2018-10-17T08:45:17.743Z,1.10
2018-10-17T08:47:47.702Z,0.60
2018-10-17T08:50:17.793Z,0.60
2018-10-17T08:52:47.649Z,1.33
2018-10-17T08:55:17.334Z,0.67
2018-10-17T08:57:46.760Z,0.50
2018-10-17T09:00:16.539Z,0.60
2018-10-17T09:02:46.505Z,0.90
2018-10-17T09:05:16.511Z,1.90
2018-10-17T09:07:46.539Z,0.60
2018-10-17T09:10:17.830Z,0.50
2018-10-17T09:12:48.789Z,0.50
2018-10-17T09:15:18.995Z,0.60
2018-10-17T09:17:49.001Z,0.50
2018-10-17T09:20:18.893Z,1.63
2018-10-17T09:22:48.103Z,0.70
2018-10-17T09:25:18.757Z,0.60
2018-10-17T09:27:48.643Z,1.65
2018-10-17T09:30:18.788Z,0.70
2018-10-17T09:32:48.728Z,2.83
2018-10-17T09:35:18.619Z,2.50
2018-10-17T09:37:49.166Z,1.33
2018-10-17T09:40:19.440Z,0.90
2018-10-17T09:42:49.521Z,1.17
2018-10-17T09:45:19.488Z,1.10
2018-10-17T09:47:49.372Z,0.60
2018-10-17T09:50:19.413Z,0.60
2018-10-17T09:52:49.480Z,0.57
2018-10-17T09:55:19.207Z,1.57
2018-10-17T09:57:49.079Z,0.70
2018-10-17T10:00:36.058Z,1.37
2018-10-17T10:03:06.299Z,1.90
2018-10-17T10:05:41.373Z,0.70
2018-10-17T10:08:12.249Z,0.90
2018-10-17T10:10:43.036Z,0.80
2018-10-17T10:13:12.695Z,0.60
2018-10-17T10:15:42.940Z,0.70
2018-10-17T10:18:12.581Z,1.00
2018-10-17T10:20:42.106Z,2.30
2018-10-17T10:23:11.581Z,2.53
2018-10-17T10:25:41.079Z,2.90
2018-10-17T10:28:10.623Z,1.70
2018-10-17T10:30:41.814Z,0.60
2018-10-17T10:33:11.510Z,2.07
2018-10-17T10:35:41.004Z,0.80
2018-10-17T10:38:10.582Z,0.90
2018-10-17T10:40:40.222Z,1.30
2018-10-17T10:43:09.664Z,0.70
2018-10-17T10:45:39.242Z,1.63
2018-10-17T10:48:09.289Z,1.70
2018-10-17T10:50:38.837Z,1.53
2018-10-17T10:53:08.415Z,2.50
2018-10-17T10:55:41.737Z,1.33
2018-10-17T10:58:13.299Z,2.63
2018-10-17T11:00:43.081Z,1.10
2018-10-17T11:03:12.773Z,1.17
2018-10-17T11:05:42.775Z,1.27
2018-10-17T11:08:12.461Z,3.53
2018-10-17T11:10:41.827Z,1.00
2018-10-17T11:13:11.690Z,1.60
2018-10-17T11:15:41.480Z,1.00
2018-10-17T11:18:11.031Z,1.43
2018-10-17T11:20:40.553Z,1.17
2018-10-17T11:23:10.923Z,1.23
2018-10-17T11:25:40.529Z,1.17
2018-10-17T11:28:10.410Z,0.90
2018-10-17T11:30:40.426Z,1.17
2018-10-17T11:33:11.086Z,1.47
2018-10-17T11:35:40.446Z,2.43
2018-10-17T11:38:10.250Z,2.00
2018-10-17T11:40:40.027Z,1.40
2018-10-17T11:43:09.756Z,1.90
2018-10-17T11:45:39.249Z,2.70
2018-10-17T11:48:09.096Z,2.93
2018-10-17T11:50:38.854Z,1.00
2018-10-17T11:53:08.327Z,2.27
2018-10-17T11:55:38.175Z,2.43
2018-10-17T11:58:08.705Z,4.08
2018-10-17T12:00:38.383Z,3.30
2018-10-17T12:03:07.912Z,4.67
2018-10-17T12:05:37.988Z,3.67
2018-10-17T12:08:07.892Z,5.77
2018-10-17T12:10:37.564Z,2.60
2018-10-17T12:13:06.952Z,4.07
2018-10-17T12:15:39.307Z,4.00
2018-10-17T12:18:09.239Z,2.93
2018-10-17T12:20:38.903Z,1.80
2018-10-17T12:23:08.730Z,1.63
2018-10-17T12:25:38.808Z,2.60
2018-10-17T12:28:10.708Z,5.40
2018-10-17T12:30:45.065Z,4.00
2018-10-17T12:33:14.626Z,2.30
2018-10-17T12:35:44.406Z,3.90
2018-10-17T12:38:14.059Z,3.00
2018-10-17T12:40:43.922Z,2.83
2018-10-17T12:43:13.462Z,4.33
2018-10-17T12:45:43.286Z,3.40
2018-10-17T12:48:12.907Z,3.93
2018-10-17T12:50:42.439Z,1.20
2018-10-17T12:53:12.012Z,4.50
2018-10-17T12:55:41.709Z,3.58
2018-10-17T12:58:11.683Z,2.27
2018-10-17T13:00:41.374Z,1.50
2018-10-17T13:03:11.225Z,2.33
2018-10-17T13:05:40.935Z,1.70
2018-10-17T13:08:10.742Z,2.03
2018-10-17T13:10:40.742Z,5.47
2018-10-17T13:13:11.139Z,3.33
2018-10-17T13:15:41.028Z,2.50
2018-10-17T13:18:10.690Z,4.27
2018-10-17T13:20:40.469Z,3.60
2018-10-17T13:23:10.560Z,4.17
2018-10-17T13:25:40.128Z,3.87
2018-10-17T13:28:09.918Z,3.70
2018-10-17T13:30:39.557Z,2.43
2018-10-17T13:33:09.320Z,2.00
2018-10-17T13:35:38.978Z,4.27
2018-10-17T13:38:08.764Z,5.57
2018-10-17T13:40:38.374Z,4.40
2018-10-17T13:43:08.295Z,6.00
2018-10-17T13:45:38.187Z,4.37
2018-10-17T13:48:08.203Z,3.93
2018-10-17T13:50:38.849Z,4.40
2018-10-17T13:53:09.282Z,5.80
2018-10-17T13:55:38.891Z,3.70
2018-10-17T13:58:08.783Z,2.33
2018-10-17T14:00:40.987Z,4.00
2018-10-17T14:03:10.805Z,5.47
2018-10-17T14:05:41.883Z,2.73
2018-10-17T14:08:11.649Z,3.37
2018-10-17T14:10:41.338Z,3.70
2018-10-17T14:13:11.348Z,5.80
2018-10-17T14:15:40.978Z,2.03
2018-10-17T14:18:10.476Z,1.80
2018-10-17T14:20:39.897Z,2.70
2018-10-17T14:23:09.690Z,2.33
2018-10-17T14:25:39.704Z,3.17
2018-10-17T14:28:09.364Z,4.23
2018-10-17T14:30:39.658Z,3.83
2018-10-17T14:33:12.950Z,1.60
2018-10-17T14:35:42.675Z,2.97
2018-10-17T14:38:12.103Z,3.63
2018-10-17T14:40:41.924Z,2.30
2018-10-17T14:43:11.675Z,3.07
2018-10-17T14:45:41.134Z,3.97
2018-10-17T14:48:10.928Z,8.03
2018-10-17T14:50:40.273Z,2.63
2018-10-17T14:53:10.211Z,3.37
2018-10-17T14:55:39.853Z,3.73
2018-10-17T14:58:09.832Z,2.20
2018-10-17T15:00:44.254Z,1.33
2018-10-17T15:03:13.841Z,1.93
2018-10-17T15:05:45.086Z,3.43
2018-10-17T15:08:14.563Z,2.07
2018-10-17T15:10:44.173Z,1.77
2018-10-17T15:13:14.794Z,2.57
2018-10-17T15:15:45.659Z,1.47
2018-10-17T15:18:16.327Z,2.07
2018-10-17T15:20:45.989Z,2.43
2018-10-17T15:23:15.452Z,2.17
2018-10-17T15:25:44.903Z,1.53
2018-10-17T15:28:14.727Z,1.63
2018-10-17T15:30:49.249Z,1.37
2018-10-17T15:33:19.208Z,3.50
2018-10-17T15:35:48.926Z,3.43
2018-10-17T15:38:19.006Z,3.03
2018-10-17T15:40:48.684Z,3.53
2018-10-17T15:43:18.625Z,6.67
2018-10-17T15:45:48.629Z,1.07
2018-10-17T15:48:18.672Z,3.17
2018-10-17T15:50:48.808Z,1.70
2018-10-17T15:53:19.168Z,2.27
2018-10-17T15:55:48.975Z,1.30
2018-10-17T15:58:19.317Z,8.17
2018-10-17T16:00:50.071Z,5.50
2018-10-17T16:03:19.750Z,2.27
2018-10-17T16:05:49.913Z,1.00
2018-10-17T16:08:20.211Z,1.50
2018-10-17T16:10:49.808Z,0.80
2018-10-17T16:13:19.498Z,5.27
2018-10-17T16:15:48.931Z,1.20
2018-10-17T16:18:18.944Z,6.43
2018-10-17T16:20:48.601Z,1.57
2018-10-17T16:23:18.588Z,0.63
2018-10-17T16:25:48.283Z,1.37
2018-10-17T16:28:18.074Z,3.30
2018-10-17T16:30:47.899Z,2.30
2018-10-17T16:33:17.692Z,0.53
2018-10-17T16:35:48.259Z,2.93
2018-10-17T16:38:18.385Z,4.77
2018-10-17T16:40:48.131Z,2.93
2018-10-17T16:43:17.887Z,1.77
2018-10-17T16:45:47.539Z,0.77
2018-10-17T16:48:17.358Z,1.03
2018-10-17T16:50:49.848Z,0.97
2018-10-17T16:53:19.466Z,3.60
2018-10-17T16:55:48.912Z,0.60
2018-10-17T16:58:18.754Z,5.17
2018-10-17T17:00:48.347Z,0.93
2018-10-17T17:03:17.878Z,2.43
2018-10-17T17:05:47.642Z,0.70
2018-10-17T17:08:17.624Z,0.63
2018-10-17T17:10:47.672Z,0.50
2018-10-17T17:13:17.360Z,0.70
2018-10-17T17:15:47.186Z,0.70
2018-10-17T17:18:16.977Z,0.60
2018-10-17T17:20:46.731Z,1.00
2018-10-17T17:23:16.387Z,0.50
2018-10-17T17:25:45.900Z,0.53
2018-10-17T17:28:15.650Z,0.83
2018-10-17T17:30:51.108Z,0.77
2018-10-17T17:33:21.101Z,1.27
2018-10-17T17:35:50.796Z,0.63
2018-10-17T17:38:20.762Z,0.63
2018-10-17T17:40:50.419Z,0.50
2018-10-17T17:43:19.851Z,0.50
2018-10-17T17:45:49.668Z,0.50
2018-10-17T17:48:19.645Z,0.50
2018-10-17T17:50:49.308Z,2.00
2018-10-17T17:53:19.135Z,0.73
2018-10-17T17:55:48.769Z,0.90
2018-10-17T17:58:18.682Z,0.60
2018-10-17T18:00:51.029Z,0.47
2018-10-17T18:03:20.689Z,0.50
2018-10-17T18:05:50.299Z,0.50
2018-10-17T18:08:19.709Z,0.80
2018-10-17T18:10:49.189Z,0.60
2018-10-17T18:13:19.088Z,0.50
2018-10-17T18:15:48.781Z,0.50
2018-10-17T18:18:18.391Z,0.50
2018-10-17T18:20:48.238Z,0.60
2018-10-17T18:23:17.908Z,0.47
2018-10-17T18:25:47.688Z,1.07
2018-10-17T18:28:17.552Z,0.80
2018-10-17T18:30:55.648Z,0.47
2018-10-17T18:33:25.782Z,0.60
2018-10-17T18:35:55.534Z,0.50
2018-10-17T18:38:25.378Z,0.50
2018-10-17T18:40:55.369Z,2.20
2018-10-17T18:43:25.627Z,0.90
2018-10-17T18:45:55.765Z,0.50
2018-10-17T18:48:25.939Z,0.50
2018-10-17T18:50:55.637Z,0.60
2018-10-17T18:53:25.406Z,0.40
2018-10-17T18:55:55.511Z,0.50
2018-10-17T18:58:25.602Z,0.50
2018-10-17T19:00:55.639Z,0.50
2018-10-17T19:03:25.715Z,0.60
2018-10-17T19:05:55.508Z,0.50
2018-10-17T19:08:25.015Z,0.50
2018-10-17T19:10:54.790Z,0.57
2018-10-17T19:13:24.454Z,0.67
2018-10-17T19:15:54.436Z,1.10
2018-10-17T19:18:24.404Z,0.50
2018-10-17T19:20:54.449Z,0.40
2018-10-17T19:23:24.445Z,0.47
2018-10-17T19:25:54.539Z,0.50
2018-10-17T19:28:24.494Z,0.60
2018-10-17T19:30:55.710Z,0.43
2018-10-17T19:33:25.512Z,0.93
2018-10-17T19:35:55.237Z,0.43
2018-10-17T19:38:25.037Z,0.47
2018-10-17T19:40:57.633Z,0.43
2018-10-17T19:43:27.076Z,0.40
2018-10-17T19:45:56.894Z,0.50
2018-10-17T19:48:27.021Z,0.50
2018-10-17T19:50:56.705Z,0.40
2018-10-17T19:53:26.171Z,0.60
2018-10-17T19:55:56.119Z,0.40
2018-10-17T19:58:26.100Z,0.40
2018-10-17T20:00:55.713Z,1.80
2018-10-17T20:03:25.153Z,0.50
2018-10-17T20:05:56.266Z,0.40
2018-10-17T20:08:25.918Z,0.50
2018-10-17T20:10:55.374Z,0.40
2018-10-17T20:13:24.829Z,0.50
2018-10-17T20:15:54.261Z,0.40
2018-10-17T20:18:24.046Z,0.40
2018-10-17T20:20:53.919Z,0.40
2018-10-17T20:23:23.549Z,0.40
2018-10-17T20:25:53.013Z,0.40
2018-10-17T20:28:22.486Z,0.40
2018-10-17T20:30:52.679Z,0.50
2018-10-17T20:33:22.424Z,0.40
2018-10-17T20:35:52.508Z,2.27
2018-10-17T20:38:22.192Z,0.50
2018-10-17T20:40:52.523Z,0.40
2018-10-17T20:43:22.171Z,1.93
2018-10-17T20:45:51.614Z,0.40
2018-10-17T20:48:21.033Z,0.50
2018-10-17T20:50:50.914Z,0.40
2018-10-17T20:53:20.359Z,1.60
2018-10-17T20:55:49.794Z,0.40
2018-10-17T20:58:19.462Z,0.40
2018-10-17T21:00:51.877Z,0.40
2018-10-17T21:03:21.300Z,0.40
2018-10-17T21:05:52.656Z,0.47
2018-10-17T21:08:22.065Z,0.60
2018-10-17T21:10:51.919Z,0.40
2018-10-17T21:13:21.544Z,0.40
2018-10-17T21:15:51.007Z,0.40
2018-10-17T21:18:20.495Z,0.40
2018-10-17T21:20:49.894Z,0.40
2018-10-17T21:23:19.311Z,0.40
2018-10-17T21:25:48.743Z,0.40
2018-10-17T21:28:18.175Z,0.50
2018-10-17T21:30:47.965Z,0.40
2018-10-17T21:33:17.615Z,0.50
2018-10-17T21:35:47.419Z,0.40
2018-10-17T21:38:17.530Z,0.40
2018-10-17T21:40:47.519Z,0.40
2018-10-17T21:43:17.529Z,0.40
2018-10-17T21:45:47.230Z,0.83
2018-10-17T21:48:16.704Z,0.40
2018-10-17T21:50:46.121Z,0.40
2018-10-17T21:53:15.543Z,0.40
2018-10-17T21:55:44.946Z,0.50
2018-10-17T21:58:14.841Z,0.50
2018-10-17T22:00:44.614Z,0.40
2018-10-17T22:03:14.030Z,0.40
2018-10-17T22:05:43.503Z,0.40
2018-10-17T22:08:12.959Z,0.40
2018-10-17T22:10:42.388Z,0.40
2018-10-17T22:13:11.796Z,0.50
2018-10-17T22:15:41.332Z,0.80
2018-10-17T22:18:10.732Z,0.40
2018-10-17T22:20:40.536Z,0.40
2018-10-17T22:23:10.139Z,0.40
2018-10-17T22:25:39.709Z,0.40
2018-10-17T22:28:09.142Z,0.40
2018-10-17T22:30:38.565Z,0.40
2018-10-17T22:33:07.963Z,0.40
2018-10-17T22:35:38.561Z,0.40
2018-10-17T22:38:08.240Z,0.40
2018-10-17T22:40:38.004Z,0.40
2018-10-17T22:43:07.645Z,0.40
2018-10-17T22:45:37.554Z,0.50
2018-10-17T22:48:07.276Z,0.40
2018-10-17T22:50:36.734Z,0.40
2018-10-17T22:53:06.288Z,0.40
2018-10-17T22:55:36.064Z,0.60
2018-10-17T22:58:05.796Z,0.40
2018-10-17T23:00:35.166Z,0.40
2018-10-17T23:03:05.583Z,1.07
2018-10-17T23:05:35.616Z,0.40
2018-10-17T23:08:05.683Z,0.40
2018-10-17T23:10:35.341Z,0.40
2018-10-17T23:13:05.563Z,0.40
2018-10-17T23:15:35.660Z,0.40
2018-10-17T23:18:05.697Z,0.50
2018-10-17T23:20:35.305Z,0.40
2018-10-17T23:23:05.169Z,0.50
2018-10-17T23:25:35.774Z,0.40
2018-10-17T23:28:05.864Z,0.40
2018-10-17T23:30:35.567Z,0.40
2018-10-17T23:33:05.320Z,0.43
2018-10-17T23:35:35.338Z,0.40
2018-10-17T23:38:05.423Z,0.40
2018-10-17T23:40:35.011Z,0.40
2018-10-17T23:43:05.657Z,0.40
2018-10-17T23:45:35.607Z,0.40
2018-10-17T23:48:06.785Z,0.43
2018-10-17T23:50:36.746Z,0.40
2018-10-17T23:53:07.191Z,0.40
2018-10-17T23:55:37.215Z,0.40
2018-10-17T23:58:07.211Z,0.40
